Time;durP1;ratioP1;P1;durP2;ratioP2;P2;SDS_P1;SDS_P2;PMS_P1;PMS_P2;Temp;Humidity;BMP_temperature;BMP_pressure;BME280_temperature;BME280_humidity;BME280_pressure;Samples;Min_cycle;Max_cycle;Signal;HPM_P1;HPM_P2
2024/02/08 00:00:26;;;;;;;6.10;2.70;;;;;;;-2.01;76.41;99769.75;103975;1310;25277;-57
2024/02/08 00:02:52;;;;;;;9.90;3.10;;;;;;;-2.03;76.26;99770.55;102915;1310;24734;-57
2024/02/08 00:05:17;;;;;;;9.30;3.20;;;;;;;-2.07;76.40;99772.85;102757;1304;22566;-57
2024/02/08 00:07:43;;;;;;;6.10;3.00;;;;;;;-2.11;76.53;99769.91;102838;1295;22650;-58
2024/02/08 00:10:08;;;;;;;8.00;3.20;;;;;;;-2.14;76.53;99771.70;102970;1313;22565;-58
2024/02/08 00:12:38;;;;;;;9.50;3.10;;;;;;;-2.18;76.54;99769.77;102972;1310;25648;-62
2024/02/08 00:15:06;;;;;;;7.50;3.40;;;;;;;-2.21;76.48;99774.26;102980;1308;22614;-57
2024/02/08 00:17:31;;;;;;;8.90;2.60;;;;;;;-2.26;76.52;99775.66;104754;1310;25436;-57
2024/02/08 00:19:57;;;;;;;6.40;3.00;;;;;;;-2.29;76.64;99774.91;102732;1299;22585;-58
2024/02/08 00:22:22;;;;;;;14.30;3.40;;;;;;;-2.33;76.68;99773.98;102873;1311;24394;-58
2024/02/08 00:24:48;;;;;;;8.30;3.00;;;;;;;-2.37;76.78;99767.64;102789;1304;22623;-57
2024/02/08 00:27:18;;;;;;;9.60;3.10;;;;;;;-2.41;76.93;99766.22;102794;1307;22600;-56
2024/02/08 00:29:44;;;;;;;9.00;3.70;;;;;;;-2.44;77.02;99771.71;102941;1298;22565;-57
2024/02/08 00:32:09;;;;;;;8.20;3.40;;;;;;;-2.45;76.89;99773.88;102948;1310;26978;-59
2024/02/08 00:34:35;;;;;;;7.60;3.50;;;;;;;-2.45;76.95;99776.57;102993;1310;24422;-58
2024/02/08 00:37:00;;;;;;;19.80;4.60;;;;;;;-2.47;76.85;99776.21;102880;1294;24735;-57
2024/02/08 00:39:26;;;;;;;10.80;3.80;;;;;;;-2.47;77.03;99780.74;102870;1294;22564;-56
2024/02/08 00:41:51;;;;;;;12.00;3.50;;;;;;;-2.48;77.14;99782.24;102914;1303;22755;-56
2024/02/08 00:44:18;;;;;;;12.50;3.90;;;;;;;-2.50;77.11;99779.66;102917;1310;22687;-56
2024/02/08 00:46:44;;;;;;;6.80;3.10;;;;;;;-2.55;77.05;99781.59;106899;1313;22924;-58
2024/02/08 00:49:09;;;;;;;11.80;3.80;;;;;;;-2.58;77.16;99779.98;104772;1294;25348;-58
2024/02/08 00:51:35;;;;;;;8.90;3.30;;;;;;;-2.60;77.16;99783.52;102873;1312;29155;-59
2024/02/08 00:54:01;;;;;;;12.60;3.70;;;;;;;-2.63;77.24;99783.96;102944;1301;25450;-58
2024/02/08 00:56:27;;;;;;;7.00;3.30;;;;;;;-2.67;77.01;99784.04;102921;1301;25395;-57
2024/02/08 00:58:53;;;;;;;13.00;3.40;;;;;;;-2.70;77.18;99781.29;102846;1300;25314;-57
2024/02/08 01:01:19;;;;;;;5.20;2.60;;;;;;;-2.76;77.02;99784.48;102828;1307;25300;-58
2024/02/08 01:03:45;;;;;;;8.70;3.20;;;;;;;-2.81;77.13;99783.86;102799;1304;22575;-58
2024/02/08 01:06:11;;;;;;;7.80;2.80;;;;;;;-2.83;76.96;99788.71;102946;1310;25155;-57
2024/02/08 01:08:37;;;;;;;7.60;3.40;;;;;;;-2.86;77.23;99787.63;106816;1295;22459;-58
2024/02/08 01:11:03;;;;;;;16.10;3.90;;;;;;;-2.90;77.13;99787.86;107023;1309;22296;-57
2024/02/08 01:13:31;;;;;;;14.20;4.00;;;;;;;-2.90;77.41;99790.72;106892;1310;23328;-57
2024/02/08 01:16:00;;;;;;;10.90;3.70;;;;;;;-2.90;77.21;99791.39;103257;1310;26462;-58
2024/02/08 01:18:26;;;;;;;10.00;3.20;;;;;;;-2.89;77.03;99794.11;102803;1316;22608;-57
2024/02/08 01:20:52;;;;;;;9.20;4.00;;;;;;;-2.90;77.20;99796.13;102776;1297;22559;-58
2024/02/08 01:23:18;;;;;;;13.00;4.70;;;;;;;-2.91;77.21;99793.05;102621;1313;25524;-57
2024/02/08 01:25:44;;;;;;;9.90;3.60;;;;;;;-2.91;77.36;99792.39;102811;1303;25364;-58
2024/02/08 01:28:10;;;;;;;11.90;4.20;;;;;;;-2.92;77.36;99794.36;102854;1310;22571;-59
2024/02/08 01:30:38;;;;;;;9.10;3.90;;;;;;;-2.95;77.24;99790.09;106897;1297;22287;-59
2024/02/08 01:33:06;;;;;;;;;;;;;;;-2.96;77.28;99789.55;107009;1310;23653;-59
2024/02/08 01:35:32;;;;;;;9.40;4.10;;;;;;;-2.96;77.48;99788.53;107014;1309;22229;-60
2024/02/08 01:37:59;;;;;;;8.80;3.70;;;;;;;-2.97;77.53;99792.91;106836;1307;23144;-59
2024/02/08 01:40:26;;;;;;;10.50;3.70;;;;;;;-2.99;77.12;99790.83;106945;1294;22385;-60
2024/02/08 01:42:57;;;;;;;6.60;3.20;;;;;;;-3.01;77.09;99796.36;105053;1307;24248;-58
2024/02/08 01:45:41;;;;;;;13.90;4.70;;;;;;;-2.98;77.23;99796.24;102846;1313;22579;-57
2024/02/08 01:48:10;;;;;;;14.90;5.00;;;;;;;-2.94;77.31;99794.98;104058;1302;24123;-58
2024/02/08 01:50:48;;;;;;;17.90;5.00;;;;;;;-2.91;77.09;99792.05;102810;1297;22584;-58
2024/02/08 01:53:18;;;;;;;10.70;5.10;;;;;;;-2.89;77.28;99792.92;102992;1301;24440;-58
2024/02/08 01:55:54;;;;;;;12.10;5.40;;;;;;;-2.91;77.50;99794.73;102879;1297;27622;-59
2024/02/08 01:58:21;;;;;;;8.30;4.00;;;;;;;-2.94;77.62;99791.13;106995;1308;22185;-59
2024/02/08 02:00:49;;;;;;;12.00;4.60;;;;;;;-2.95;77.76;99790.61;106936;1297;23063;-62
2024/02/08 02:03:16;;;;;;;11.30;5.20;;;;;;;-2.95;77.72;99790.09;106911;1310;22237;-60
2024/02/08 02:05:46;;;;;;;12.10;4.60;;;;;;;-2.95;77.74;99791.78;106937;1313;22257;-58
2024/02/08 02:08:23;;;;;;;11.90;4.50;;;;;;;-2.95;77.72;99790.59;106891;1304;23397;-59
2024/02/08 02:11:09;;;;;;;13.20;5.60;;;;;;;-2.96;77.83;99786.86;101560;1298;5003713;-59
2024/02/08 02:13:38;;;;;;;13.10;4.10;;;;;;;-2.98;77.79;99787.98;99123;1310;5003707;-58
2024/02/08 02:16:04;;;;;;;17.80;5.00;;;;;;;-3.00;77.79;99784.05;102841;1304;22653;-59
2024/02/08 02:18:31;;;;;;;14.40;4.80;;;;;;;-3.04;77.73;99787.02;106856;1313;22287;-59
2024/02/08 02:20:57;;;;;;;15.90;5.30;;;;;;;-3.05;77.99;99783.78;106461;1300;22572;-59
2024/02/08 02:23:24;;;;;;;17.40;4.80;;;;;;;-3.06;77.94;99783.74;102796;1310;22579;-57
2024/02/08 02:25:53;;;;;;;11.80;4.50;;;;;;;-3.10;78.06;99785.01;102771;1317;22684;-58
2024/02/08 02:28:20;;;;;;;17.60;5.40;;;;;;;-3.13;77.82;99786.63;102818;1314;22583;-59
2024/02/08 02:30:46;;;;;;;9.30;5.50;;;;;;;-3.14;77.87;99783.25;102770;1301;22572;-59
2024/02/08 02:33:13;;;;;;;;;;;;;;;-3.15;77.99;99782.70;102808;1310;22581;-58
2024/02/08 02:35:41;;;;;;;13.00;4.60;;;;;;;-3.16;78.42;99778.98;102753;1313;25652;-59
2024/02/08 02:38:12;;;;;;;12.30;5.90;;;;;;;-3.17;78.26;99774.73;102811;1307;23136;-58
2024/02/08 02:40:41;;;;;;;16.40;6.10;;;;;;;-3.16;77.99;99772.90;102767;1295;22612;-58
2024/02/08 02:43:10;;;;;;;15.20;5.60;;;;;;;-3.15;78.06;99774.45;102832;1310;26775;-59
2024/02/08 02:45:36;;;;;;;15.00;6.50;;;;;;;-3.14;78.14;99775.30;102846;1295;23186;-57
2024/02/08 02:48:02;;;;;;;12.90;5.50;;;;;;;-3.14;78.27;99771.10;102859;1310;24344;-57
2024/02/08 02:50:28;;;;;;;11.50;5.40;;;;;;;-3.15;78.30;99770.75;102836;1300;22844;-58
2024/02/08 02:52:54;;;;;;;13.90;5.80;;;;;;;-3.15;78.37;99772.61;102850;1311;22735;-58
2024/02/08 02:55:20;;;;;;;15.20;5.60;;;;;;;-3.14;78.34;99771.59;102827;1310;22572;-59
2024/02/08 02:57:47;;;;;;;12.30;5.70;;;;;;;-3.15;78.45;99771.08;102843;1310;22587;-60
2024/02/08 03:00:22;;;;;;;12.70;6.30;;;;;;;-3.14;78.51;99767.56;102758;1303;22723;-59
2024/02/08 03:02:52;;;;;;;14.60;6.00;;;;;;;-3.13;78.57;99771.28;102779;1299;27345;-58
2024/02/08 03:05:23;;;;;;;13.90;6.40;;;;;;;-3.16;78.50;99771.05;102818;1309;22849;-58
2024/02/08 03:07:50;;;;;;;13.70;6.70;;;;;;;-3.18;78.56;99770.00;102839;1310;22588;-58
2024/02/08 03:10:19;;;;;;;19.10;7.10;;;;;;;-3.18;78.56;99769.48;106819;1310;23160;-58
2024/02/08 03:12:54;;;;;;;14.20;6.20;;;;;;;-3.17;78.39;99766.63;106779;1300;23432;-59
2024/02/08 03:15:22;;;;;;;10.70;5.80;;;;;;;-3.14;78.62;99765.05;103883;1310;22610;-60
2024/02/08 03:17:47;;;;;;;15.80;6.30;;;;;;;-3.11;78.53;99765.73;105491;1310;22710;-57
2024/02/08 03:20:17;;;;;;;16.10;6.80;;;;;;;-3.10;78.42;99763.58;102781;1300;23845;-59
2024/02/08 03:22:48;;;;;;;15.20;6.90;;;;;;;-3.09;78.51;99768.17;106827;1295;23137;-60
2024/02/08 03:25:14;;;;;;;12.80;7.20;;;;;;;-3.07;78.49;99762.15;106816;1310;22247;-60
2024/02/08 03:27:42;;;;;;;17.10;7.10;;;;;;;-3.03;78.10;99763.27;103444;1310;25165;-59
2024/02/08 03:30:30;;;;;;;15.30;6.10;;;;;;;-3.02;77.90;99759.91;102910;1311;22610;-57
2024/02/08 03:33:02;;;;;;;15.00;6.70;;;;;;;-3.01;78.46;99758.94;106033;1296;25268;-59
2024/02/08 03:35:27;;;;;;;17.20;7.20;;;;;;;-3.03;78.34;99756.36;102792;1307;22737;-59
2024/02/08 03:38:00;;;;;;;14.60;6.90;;;;;;;-3.03;78.52;99751.62;102808;1306;22564;-58
2024/02/08 03:40:32;;;;;;;16.20;6.40;;;;;;;-3.05;78.60;99750.38;102785;1317;22696;-59
2024/02/08 03:43:00;;;;;;;10.70;6.10;;;;;;;-3.08;78.53;99750.33;102741;1297;23965;-59
2024/02/08 03:45:29;;;;;;;15.90;6.30;;;;;;;-3.09;78.40;99753.15;102856;1295;22670;-58
2024/02/08 03:47:58;;;;;;;19.70;6.70;;;;;;;-3.11;78.48;99749.73;102912;1317;22586;-58
2024/02/08 03:50:29;;;;;;;17.30;7.70;;;;;;;-3.12;78.65;99747.71;106237;1310;22634;-65
2024/02/08 03:52:55;;;;;;;17.30;7.20;;;;;;;-3.13;78.68;99746.34;102750;1300;22753;-57
2024/02/08 03:55:26;;;;;;;17.50;6.00;;;;;;;-3.16;78.61;99749.15;102839;1294;25557;-58
2024/02/08 03:58:00;;;;;;;13.60;6.30;;;;;;;-3.17;78.73;99752.15;102785;1302;22777;-58
2024/02/08 04:00:29;;;;;;;16.80;7.00;;;;;;;-3.20;78.76;99749.72;104021;1310;23812;-57
2024/02/08 04:02:59;;;;;;;14.40;6.30;;;;;;;-3.21;78.78;99752.03;102651;1301;22774;-57
2024/02/08 04:05:42;;;;;;;15.10;6.50;;;;;;;-3.22;78.80;99754.38;102817;1294;22584;-56
2024/02/08 04:54:32;;;;;;;11.80;5.40;;;;;;;-2.75;79.00;99771.20;102477;1300;367980;-59
2024/02/08 04:56:59;;;;;;;10.00;5.20;;;;;;;-2.73;79.12;99770.91;102916;1310;22825;-59
2024/02/08 04:59:26;;;;;;;12.30;4.90;;;;;;;-2.71;79.35;99768.59;102874;1307;24667;-58
2024/02/08 05:01:53;;;;;;;15.10;5.10;;;;;;;-2.72;79.30;99768.73;104411;1301;22590;-58
2024/02/08 05:04:20;;;;;;;11.00;5.20;;;;;;;-2.70;79.00;99778.91;103821;1300;22859;-60
2024/02/08 05:06:47;;;;;;;14.20;5.70;;;;;;;-2.68;79.07;99783.00;102769;1304;22591;-61
2024/02/08 05:09:19;;;;;;;15.30;5.10;;;;;;;-2.64;79.27;99785.79;102990;1302;26708;-59
2024/02/08 05:11:48;;;;;;;12.30;4.60;;;;;;;-2.62;79.50;99779.92;102789;1311;24238;-60
2024/02/08 05:14:15;;;;;;;10.20;4.60;;;;;;;-2.61;79.41;99779.11;102811;1297;22696;-58
2024/02/08 05:16:41;;;;;;;10.00;5.10;;;;;;;-2.61;79.35;99777.94;102850;1310;25188;-59
2024/02/08 05:19:09;;;;;;;14.70;5.90;;;;;;;-2.58;79.52;99775.09;102881;1304;25676;-58
2024/02/08 05:21:41;;;;;;;12.30;5.40;;;;;;;-2.57;79.49;99771.08;102914;1311;25103;-57
2024/02/08 05:24:14;;;;;;;10.30;4.60;;;;;;;-2.57;79.56;99767.02;102906;1298;22681;-60
2024/02/08 05:26:40;;;;;;;9.90;5.00;;;;;;;-2.58;79.67;99770.36;103106;1313;23848;-59
2024/02/08 05:29:07;;;;;;;10.70;4.40;;;;;;;-2.59;79.34;99772.22;102896;1310;24290;-58
2024/02/08 05:31:39;;;;;;;9.00;4.60;;;;;;;-2.59;79.51;99776.92;103064;1304;24163;-60
2024/02/08 05:34:10;;;;;;;12.40;5.50;;;;;;;-2.57;79.76;99774.94;106827;1304;22537;-59
2024/02/08 05:36:39;;;;;;;13.20;5.40;;;;;;;-2.56;80.22;99765.87;106814;1314;22328;-60
2024/02/08 05:39:07;;;;;;;11.00;4.60;;;;;;;-2.54;80.20;99765.73;103455;1310;25531;-63
2024/02/08 05:41:33;;;;;;;15.60;6.30;;;;;;;-2.51;80.46;99765.99;103241;1313;22592;-59
2024/02/08 05:44:05;;;;;;;17.20;5.30;;;;;;;-2.46;80.10;99768.64;103237;1306;22710;-58
2024/02/08 05:46:37;;;;;;;19.80;6.50;;;;;;;-2.42;80.09;99767.55;106805;1299;22280;-59
2024/02/08 05:49:04;;;;;;;14.50;5.10;;;;;;;-2.38;79.69;99769.99;104913;1310;25735;-58
2024/02/08 05:51:33;;;;;;;;;;;;;;;-2.37;79.63;99771.54;104476;1317;22569;-60
2024/02/08 05:54:06;;;;;;;15.30;5.50;;;;;;;-2.36;79.37;99773.25;103212;1317;24292;-58
2024/02/08 05:56:39;;;;;;;14.60;5.60;;;;;;;-2.33;79.73;99775.00;103289;1297;24054;-60
2024/02/08 05:59:05;;;;;;;20.80;6.00;;;;;;;-2.30;80.08;99771.86;103232;1310;23844;-59
2024/02/08 06:01:43;;;;;;;21.80;6.90;;;;;;;-2.27;80.73;99769.39;103308;1317;25348;-60
2024/02/08 06:04:12;;;;;;;21.60;7.00;;;;;;;-2.25;80.09;99772.30;103166;1302;24243;-60
2024/02/08 06:06:48;;;;;;;20.30;6.80;;;;;;;-2.21;79.95;99777.11;104167;1295;22750;-56
2024/02/08 06:09:37;;;;;;;11.60;6.30;;;;;;;-2.18;80.58;99777.86;103276;1311;22572;-57
2024/02/08 06:12:08;;;;;;;14.30;6.10;;;;;;;-2.15;81.27;99783.17;103195;1311;22568;-60
2024/02/08 06:14:39;;;;;;;18.60;7.50;;;;;;;-2.13;81.53;99778.13;103127;1317;22769;-61
2024/02/08 06:17:11;;;;;;;18.80;8.20;;;;;;;-2.10;81.38;99780.56;103098;1298;24309;-58
2024/02/08 06:19:50;;;;;;;20.20;6.50;;;;;;;-2.06;80.58;99783.16;106782;1310;22295;-61
2024/02/08 06:22:25;;;;;;;20.00;5.90;;;;;;;-2.02;80.37;99784.75;106376;1317;22582;-59
2024/02/08 06:24:50;;;;;;;13.00;6.10;;;;;;;-1.98;80.80;99782.83;106852;1313;22729;-61
2024/02/08 06:27:25;;;;;;;17.90;7.20;;;;;;;-1.94;80.88;99775.45;106406;1312;22841;-60
2024/02/08 06:29:52;;;;;;;15.20;6.30;;;;;;;-1.91;80.58;99777.56;106738;1317;23061;-62
2024/02/08 06:35:06;;;;;;;21.40;6.50;;;;;;;-1.85;81.02;99779.19;104193;1304;26664;-60
2024/02/08 06:37:44;;;;;;;16.60;6.60;;;;;;;-1.82;80.76;99779.27;106588;1298;207073;-60
2024/02/08 07:37:46;;;;;;;20.90;8.50;;;;;;;-1.01;81.53;99744.54;103238;1300;22576;-59
2024/02/08 07:40:58;;;;;;;23.30;10.30;;;;;;;-0.95;81.24;99751.39;103198;1311;22745;-60
2024/02/08 07:45:54;;;;;;;21.40;9.90;;;;;;;-0.81;81.67;99759.91;103204;1298;22799;-61
2024/02/08 07:48:42;;;;;;;25.30;10.70;;;;;;;-0.73;81.72;99762.23;103100;1313;22622;-61
2024/02/08 07:51:09;;;;;;;22.20;10.30;;;;;;;-0.66;81.62;99760.65;103182;1317;23067;-59
2024/02/08 07:53:53;;;;;;;27.70;10.70;;;;;;;-0.57;81.51;99762.48;103179;1311;22610;-60
2024/02/08 07:59:03;;;;;;;25.50;11.00;;;;;;;-0.47;81.60;99754.15;103235;1300;84413;-55
2024/02/08 08:01:38;;;;;;;28.70;11.80;;;;;;;-0.42;81.99;99752.52;102827;1301;22648;-57
2024/02/08 08:04:09;;;;;;;29.40;12.90;;;;;;;-0.37;81.79;99744.98;102750;1317;22597;-61
2024/02/08 08:06:37;;;;;;;32.40;11.80;;;;;;;-0.33;82.63;99749.10;106815;1310;23193;-59
2024/02/08 08:09:22;;;;;;;31.20;11.70;;;;;;;-0.29;82.44;99750.84;106610;1301;22249;-60
2024/02/08 08:11:49;;;;;;;27.60;11.50;;;;;;;-0.26;82.42;99749.36;106854;1303;22236;-60
2024/02/08 08:15:13;;;;;;;30.80;11.20;;;;;;;-0.21;82.17;99749.92;106829;1303;23082;-58
2024/02/08 08:19:50;;;;;;;25.00;12.20;;;;;;;-0.11;81.97;99750.07;106801;1297;22928;-59
2024/02/08 08:22:18;;;;;;;32.10;12.30;;;;;;;-0.07;82.21;99749.11;106799;1310;22243;-57
2024/02/08 08:25:44;;;;;;;30.70;12.80;;;;;;;-0.05;82.97;99749.14;106824;1311;22402;-57
2024/02/08 08:27:32;;;;;;;30.20;12.60;;;;;;;-0.03;83.17;99747.47;106744;1313;22447;-58
2024/02/08 08:30:03;;;;;;;33.60;13.70;;;;;;;0.03;82.86;99746.48;106824;1295;22350;-57
2024/02/08 08:37:45;;;;;;;30.50;13.30;;;;;;;0.18;82.67;99738.88;106801;1310;22355;-60
2024/02/08 08:40:21;;;;;;;31.60;12.90;;;;;;;0.31;82.58;99731.91;106836;1301;23166;-58
2024/02/08 08:42:57;;;;;;;35.00;14.50;;;;;;;0.39;82.96;99728.45;106831;1313;22805;-57
2024/02/08 08:45:24;;;;;;;36.10;14.60;;;;;;;0.45;82.95;99724.78;104234;1310;22615;-58
2024/02/08 08:47:53;;;;;;;32.20;14.30;;;;;;;0.47;83.09;99722.59;106800;1310;22382;-59
2024/02/08 08:50:19;;;;;;;32.70;13.10;;;;;;;0.44;83.19;99723.25;106820;1298;22753;-58
2024/02/08 08:52:49;;;;;;;31.80;12.60;;;;;;;0.40;83.92;99731.00;106704;1314;22797;-58
2024/02/08 08:55:20;;;;;;;39.00;16.00;;;;;;;0.35;84.27;99725.34;105038;1311;22682;-58
2024/02/08 08:57:53;;;;;;;34.60;14.30;;;;;;;0.39;83.80;99722.34;103321;1316;22604;-58
2024/02/08 09:00:31;;;;;;;31.90;15.80;;;;;;;0.53;83.94;99720.95;103139;1301;25451;-57
2024/02/08 09:03:04;;;;;;;36.00;15.10;;;;;;;0.60;83.79;99720.32;103302;1310;22940;-58
2024/02/08 09:05:31;;;;;;;37.60;16.40;;;;;;;0.72;83.84;99714.16;103363;1316;23155;-58
2024/02/08 09:08:00;;;;;;;33.70;15.00;;;;;;;0.91;83.72;99707.38;106780;1313;22401;-59
2024/02/08 09:10:34;;;;;;;33.80;15.60;;;;;;;0.93;83.72;99704.68;106853;1297;22410;-58
2024/02/08 09:13:06;;;;;;;34.80;15.50;;;;;;;0.87;83.53;99708.02;106823;1310;22323;-58
2024/02/08 09:15:47;;;;;;;35.90;15.00;;;;;;;0.85;83.46;99706.98;106865;1313;22261;-58
2024/02/08 09:18:15;;;;;;;33.40;14.90;;;;;;;0.84;83.59;99710.88;106904;1310;22649;-57
2024/02/08 09:20:41;;;;;;;31.20;16.00;;;;;;;0.88;83.85;99718.55;105435;1294;22690;-55
2024/02/08 09:23:14;;;;;;;31.50;14.50;;;;;;;0.88;83.95;99718.55;103343;1317;25436;-57
2024/02/08 09:25:44;;;;;;;36.70;14.80;;;;;;;0.83;84.07;99723.93;103231;1314;22684;-57
2024/02/08 09:28:23;;;;;;;37.10;17.50;;;;;;;0.80;84.22;99731.71;104235;1314;23904;-58
2024/02/08 09:30:53;;;;;;;39.40;18.00;;;;;;;0.74;85.25;99731.48;103226;1297;22667;-56
2024/02/08 09:33:35;;;;;;;39.60;18.90;;;;;;;0.71;84.75;99730.27;104469;1310;23430;-58
2024/02/08 09:36:03;;;;;;;34.00;16.40;;;;;;;0.71;84.53;99730.94;103328;1310;22582;-56
2024/02/08 09:38:42;;;;;;;35.30;17.40;;;;;;;0.73;84.54;99729.77;105508;1310;22690;-57
2024/02/08 09:41:15;;;;;;;41.40;18.70;;;;;;;0.65;85.61;99725.46;103321;1295;22682;-56
2024/02/08 09:43:44;;;;;;;33.00;18.50;;;;;;;0.64;84.61;99720.02;103440;1309;22683;-57
2024/02/08 09:47:04;;;;;;;37.00;18.60;;;;;;;0.67;84.42;99715.81;103446;1304;22834;-54
2024/02/08 09:49:16;;;;;;;40.50;17.00;;;;;;;0.71;85.15;99718.56;103359;1316;22582;-56
2024/02/08 09:51:52;;;;;;;39.40;17.70;;;;;;;0.66;85.22;99716.65;103144;1300;22647;-56
2024/02/08 09:54:26;;;;;;;34.50;17.60;;;;;;;0.65;84.93;99711.22;103253;1310;22695;-55
2024/02/08 09:57:01;;;;;;;39.10;18.60;;;;;;;0.68;84.65;99709.72;103069;1310;22846;-56
2024/02/08 10:02:24;;;;;;;37.80;19.30;;;;;;;0.65;85.40;99709.86;103269;1297;24523;-57
2024/02/08 10:04:57;;;;;;;41.40;18.80;;;;;;;0.67;85.30;99703.42;103406;1317;22653;-56
2024/02/08 10:07:35;;;;;;;33.10;17.50;;;;;;;0.70;85.34;99700.05;103454;1310;26704;-58
2024/02/08 10:10:15;;;;;;;42.20;19.90;;;;;;;0.71;85.93;99703.98;103045;1313;23906;-54
2024/02/08 10:13:04;;;;;;;36.50;18.00;;;;;;;0.73;86.51;99703.48;103298;1310;24006;-57
2024/02/08 10:15:39;;;;;;;36.80;18.00;;;;;;;0.84;85.84;99705.11;103281;1310;24416;-57
2024/02/08 10:18:22;;;;;;;39.20;19.00;;;;;;;0.92;85.90;99704.33;103347;1310;25437;-57
2024/02/08 10:20:49;;;;;;;35.40;19.10;;;;;;;0.97;85.89;99697.42;103326;1295;22579;-55
2024/02/08 10:23:34;;;;;;;40.70;18.50;;;;;;;1.12;85.22;99699.53;103407;1311;25529;-58
2024/02/08 10:28:47;;;;;;;35.00;18.60;;;;;;;1.26;85.30;99688.95;103344;1317;23945;-56
2024/02/08 10:31:18;;;;;;;31.50;17.10;;;;;;;1.35;85.39;99681.88;103284;1294;25854;-56
2024/02/08 10:33:48;;;;;;;34.10;18.20;;;;;;;1.42;85.58;99679.03;103266;1317;24778;-56
2024/02/08 10:36:21;;;;;;;34.80;17.50;;;;;;;1.57;85.54;99674.68;104276;1301;22568;-57
2024/02/08 10:38:55;;;;;;;35.90;18.20;;;;;;;1.74;85.12;99669.65;103186;1310;22725;-57
2024/02/08 10:41:28;;;;;;;33.40;17.30;;;;;;;1.78;84.86;99670.17;103281;1298;23919;-56
2024/02/08 10:43:59;;;;;;;32.40;17.20;;;;;;;1.81;84.91;99660.69;103639;1303;22644;-56
2024/02/08 10:46:34;;;;;;;33.90;16.60;;;;;;;1.78;85.02;99652.68;103305;1310;22738;-57
2024/02/08 10:49:01;;;;;;;33.40;17.10;;;;;;;1.80;85.05;99648.95;103330;1310;23136;-57
2024/02/08 10:51:28;;;;;;;32.00;16.80;;;;;;;1.83;84.90;99644.89;103307;1293;24477;-58
2024/02/08 10:54:05;;;;;;;29.70;16.20;;;;;;;1.82;85.29;99639.95;103259;1317;24061;-57
2024/02/08 10:56:44;;;;;;;28.70;16.80;;;;;;;1.90;85.24;99644.91;103261;1310;22576;-58
2024/02/08 10:59:13;;;;;;;30.90;16.50;;;;;;;1.92;85.19;99639.83;103361;1310;22580;-57
2024/02/08 11:04:21;;;;;;;30.20;16.30;;;;;;;1.96;85.21;99642.73;103204;1307;22568;-56
2024/02/08 11:06:55;;;;;;;30.50;16.90;;;;;;;2.02;85.06;99644.44;103320;1313;22862;-56
2024/02/08 11:09:27;;;;;;;33.70;18.40;;;;;;;2.03;85.15;99645.46;106813;1310;22312;-54
2024/02/08 11:12:11;;;;;;;33.60;19.40;;;;;;;2.05;85.38;99642.41;106820;1294;22298;-56
2024/02/08 11:14:45;;;;;;;31.80;17.90;;;;;;;2.07;85.41;99637.48;106741;1309;22376;-57
2024/02/08 11:17:21;;;;;;;33.90;17.20;;;;;;;2.17;85.63;99631.19;106406;1309;22575;-53
2024/02/08 11:19:56;;;;;;;34.30;18.40;;;;;;;2.26;85.45;99628.32;106816;1310;22265;-54
2024/02/08 11:22:34;;;;;;;34.50;18.10;;;;;;;2.22;85.18;99630.35;106827;1297;22254;-54
2024/02/08 11:25:19;;;;;;;41.20;19.00;;;;;;;2.20;85.28;99634.77;104407;1316;22576;-56
2024/02/08 11:27:51;;;;;;;35.60;19.80;;;;;;;2.20;85.43;99640.89;103285;1310;24282;-51
2024/02/08 11:30:20;;;;;;;38.90;19.70;;;;;;;2.23;85.37;99643.27;105968;1313;24425;-56
2024/02/08 11:33:03;;;;;;;35.50;20.00;;;;;;;2.16;85.31;99641.90;103073;1310;23319;-55
2024/02/08 11:35:35;;;;;;;33.80;19.60;;;;;;;2.07;85.63;99647.85;103223;1310;26559;-53
2024/02/08 11:38:16;;;;;;;37.00;20.20;;;;;;;1.98;86.07;99647.31;103248;1301;22569;-56
2024/02/08 11:40:45;;;;;;;38.90;18.90;;;;;;;2.03;85.69;99638.84;106766;1317;22267;-55
2024/02/08 11:43:25;;;;;;;37.90;21.50;;;;;;;1.99;85.77;99639.67;106692;1300;22463;-54
2024/02/08 11:45:54;;;;;;;36.20;21.30;;;;;;;1.97;86.27;99631.00;103778;1303;22863;-55
2024/02/08 11:48:27;;;;;;;34.50;20.60;;;;;;;1.95;86.51;99625.22;103271;1313;22591;-53
2024/02/08 11:50:58;;;;;;;44.40;22.60;;;;;;;1.93;86.07;99617.55;103361;1309;22714;-55
2024/02/08 11:53:33;;;;;;;36.40;18.90;;;;;;;1.89;86.08;99617.55;105338;1295;22737;-54
2024/02/08 11:56:02;;;;;;;37.20;17.90;;;;;;;1.83;86.36;99614.13;103164;1310;22689;-54
2024/02/08 11:58:29;;;;;;;32.70;18.40;;;;;;;1.85;86.06;99611.59;106816;1310;23229;-57
2024/02/08 12:00:57;;;;;;;38.70;20.40;;;;;;;1.89;86.15;99609.56;106859;1310;23068;-57
2024/02/08 12:03:26;;;;;;;40.00;20.40;;;;;;;1.92;86.13;99610.08;106777;1297;23157;-57
2024/02/08 12:05:54;;;;;;;40.00;20.00;;;;;;;1.94;86.18;99602.61;106836;1317;23458;-58
2024/02/08 12:08:23;;;;;;;34.80;19.10;;;;;;;1.95;86.39;99604.48;106856;1310;22315;-58
2024/02/08 12:10:49;;;;;;;32.80;18.30;;;;;;;1.99;86.42;99602.95;106865;1316;22360;-56
2024/02/08 12:13:25;;;;;;;34.60;19.00;;;;;;;2.02;86.36;99599.40;106808;1295;22370;-57
2024/02/08 12:16:01;;;;;;;34.30;17.60;;;;;;;2.03;86.60;99603.14;106870;1315;22265;-58
2024/02/08 12:18:27;;;;;;;36.30;17.50;;;;;;;2.01;86.79;99601.09;106749;1310;23068;-56
2024/02/08 12:21:01;;;;;;;32.60;18.70;;;;;;;2.05;86.56;99599.23;106889;1317;22349;-57
2024/02/08 12:23:30;;;;;;;34.50;18.00;;;;;;;2.09;86.29;99598.52;106843;1294;22280;-56
2024/02/08 12:26:02;;;;;;;32.60;17.70;;;;;;;2.10;86.27;99603.64;106693;1316;22948;-56
2024/02/08 12:28:41;;;;;;;30.90;17.60;;;;;;;2.04;86.34;99596.52;106729;1310;22381;-57
2024/02/08 12:31:18;;;;;;;29.80;17.60;;;;;;;2.08;86.60;99596.00;106793;1310;22495;-55
2024/02/08 12:33:46;;;;;;;35.20;16.70;;;;;;;2.15;86.33;99595.14;106750;1297;22255;-57
2024/02/08 12:36:18;;;;;;;31.70;16.10;;;;;;;2.19;86.13;99595.48;106829;1311;22414;-56
2024/02/08 12:38:46;;;;;;;32.80;18.00;;;;;;;2.22;86.08;99594.64;106871;1313;22281;-56
2024/02/08 12:41:12;;;;;;;33.10;19.10;;;;;;;2.24;86.11;99588.36;106880;1313;22214;-55
2024/02/08 12:43:42;;;;;;;31.50;18.50;;;;;;;2.27;86.13;99583.60;106808;1295;23620;-56
2024/02/08 12:46:08;;;;;;;36.60;19.40;;;;;;;2.37;86.29;99582.59;106822;1310;22355;-55
2024/02/08 12:48:35;;;;;;;36.50;19.80;;;;;;;2.42;86.09;99581.90;106729;1317;22784;-55
2024/02/08 12:51:03;;;;;;;;;;;;;;;2.40;86.07;99579.36;106854;1308;22521;-57
2024/02/08 12:53:30;;;;;;;40.10;20.10;;;;;;;2.37;86.02;99585.31;106812;1293;22344;-57
2024/02/08 12:56:09;;;;;;;34.00;20.30;;;;;;;2.35;86.08;99587.52;106876;1310;22515;-56
2024/02/08 12:58:35;;;;;;;38.40;21.00;;;;;;;2.37;86.16;99590.07;106839;1303;22358;-57
2024/02/08 13:01:04;;;;;;;36.70;20.10;;;;;;;2.40;86.16;99590.74;106818;1307;23152;-55
2024/02/08 13:03:36;;;;;;;43.20;21.80;;;;;;;2.40;85.99;99586.84;106837;1305;22324;-56
2024/02/08 13:06:03;;;;;;;36.10;19.70;;;;;;;2.30;86.05;99591.25;106819;1298;22294;-59
2024/02/08 13:08:33;;;;;;;39.70;21.50;;;;;;;2.29;86.23;99587.52;106888;1310;22375;-57
2024/02/08 13:11:01;;;;;;;39.30;21.60;;;;;;;2.33;86.33;99578.67;106758;1306;22433;-55
2024/02/08 13:13:30;;;;;;;39.00;21.10;;;;;;;2.38;86.17;99574.59;106702;1309;22469;-56
2024/02/08 13:16:04;;;;;;;38.10;21.40;;;;;;;2.41;86.11;99576.47;106701;1294;22610;-59
2024/02/08 13:18:31;;;;;;;40.80;20.40;;;;;;;2.41;86.10;99582.41;106824;1317;22387;-57
2024/02/08 13:21:00;;;;;;;33.60;19.10;;;;;;;2.44;86.20;99579.70;106731;1303;22406;-55
2024/02/08 13:23:29;;;;;;;38.30;19.50;;;;;;;2.46;86.16;99573.23;106809;1313;22346;-56
2024/02/08 13:25:56;;;;;;;37.70;19.50;;;;;;;2.47;86.04;99564.91;106828;1297;22313;-58
2024/02/08 13:28:23;;;;;;;39.40;19.20;;;;;;;2.50;86.18;99564.56;106914;1310;22249;-57
2024/02/08 13:30:52;;;;;;;38.20;19.40;;;;;;;2.53;86.08;99564.39;106797;1311;23067;-58
2024/02/08 13:33:18;;;;;;;30.40;18.00;;;;;;;2.53;85.98;99561.66;106777;1310;22258;-55
2024/02/08 13:35:48;;;;;;;29.70;18.20;;;;;;;2.53;85.89;99557.92;106826;1297;22665;-58
2024/02/08 13:38:15;;;;;;;32.60;18.80;;;;;;;2.56;85.95;99556.56;106805;1317;22883;-57
2024/02/08 13:40:47;;;;;;;32.10;17.50;;;;;;;2.61;85.96;99557.39;106726;1316;22388;-56
2024/02/08 13:43:13;;;;;;;28.20;17.10;;;;;;;2.65;85.92;99551.93;106859;1310;22256;-57